Friday, November 16, 2018, 1:26 AM GMT
Back to Local

CWTN, Cap Tourmente

Location: , , Canada Lat: 47.067
Local Time: 1:26 AM GMT ( 1:26 GMT) Lon: -70.8
Time Zone: GMT Elev: 19 ft

Show me the last for .
Show Coded

Time T Td Feel RH Dir Speed Gust Alt SLP Vis Weather Sky Remarks
2018-11-16 01:00 19 6 13 58 320° 3 - - 30.39 0 None
2018-11-16 00:00 16 8 9 69 320° 5 - - 30.41 0 None
2018-11-15 23:00 19 8 8 61 320° 8 - - 30.44 0 None
2018-11-15 22:00 14 9 - 79 330° 2 - - 30.46 0 None
2018-11-15 21:00 19 8 - 64 270° 2 - - 30.49 0 None
2018-11-15 20:00 18 8 9 63 230° 7 - - 30.50 0 None
2018-11-15 19:00 19 7 13 58 230° 5 - - 30.49 0 None
2018-11-15 18:00 20 6 13 54 250° 5 - - 30.53 0 None
2018-11-15 17:00 19 5 10 54 260° 7 - - 30.57 0 None
2018-11-15 16:00 18 6 9 57 250° 7 - - 30.58 0 None
2018-11-15 15:00 16 6 6 62 240° 7 - - 30.60 0 None
2018-11-15 14:00 13 5 6 68 250° 5 - - 30.60 0 None
2018-11-15 13:00 11 3 5 67 260° 3 - - 30.61 0 None
2018-11-15 12:00 6 1 -2 81 300° 3 - - 30.60 0 None
2018-11-15 11:00 4 -1 -3 75 250° 3 - - 30.60 0 None
2018-11-15 10:00 5 1 -4 80 320° 5 - - 30.57 0 None
2018-11-15 09:00 5 0 - 79 310° 2 - - 30.56 0 None
2018-11-15 08:00 7 1 - 76 310° 2 - - 30.55 0 None
2018-11-15 07:00 5 0 -3 81 300° 3 - - 30.55 0 None
2018-11-15 06:00 6 1 -3 77 340° 5 - - 30.52 0 None
2018-11-15 05:00 6 3 - 84 300° 2 - - 30.51 0 None
2018-11-15 04:00 7 3 - 81 300° 2 - - 30.47 0 None
2018-11-15 03:00 13 4 5 68 280° 5 - - 30.45 0 None
2018-11-15 02:00 10 8 4 88 300° 3 - - 30.44 0 None

Support USWX by starting your Amazon purchase here.